createdAt,value
2022-11-16T00:00:10.844Z,89.47
2022-11-16T00:02:58.554Z,88.43
2022-11-16T00:05:28.548Z,85.57
2022-11-16T00:07:56.313Z,84.80
2022-11-16T00:10:23.918Z,79.53
2022-11-16T00:12:51.031Z,72.85
2022-11-16T00:15:18.599Z,68.93
2022-11-16T00:17:45.808Z,74.65
2022-11-16T00:20:13.589Z,82.78
2022-11-16T00:22:41.161Z,80.63
2022-11-16T00:25:08.751Z,81.95
2022-11-16T00:27:35.987Z,80.38
2022-11-16T00:30:04.507Z,78.25
2022-11-16T00:32:33.662Z,79.50
2022-11-16T00:35:01.484Z,73.05
2022-11-16T00:37:28.666Z,70.18
2022-11-16T00:39:56.606Z,71.80
2022-11-16T00:42:24.083Z,77.03
2022-11-16T00:44:51.862Z,75.38
2022-11-16T00:47:20.445Z,85.35
2022-11-16T00:49:48.132Z,71.85
2022-11-16T00:52:15.330Z,83.18
2022-11-16T00:54:42.819Z,86.30
2022-11-16T00:57:10.356Z,78.80
2022-11-16T00:59:38.113Z,69.28
2022-11-16T01:02:05.350Z,59.60
2022-11-16T01:04:34.303Z,68.90
2022-11-16T01:07:01.494Z,69.38
2022-11-16T01:09:29.414Z,68.38
2022-11-16T01:12:12.797Z,73.47
2022-11-16T01:14:45.606Z,79.93
2022-11-16T01:17:14.344Z,80.15
2022-11-16T01:19:41.951Z,81.57
2022-11-16T01:22:09.204Z,81.80
2022-11-16T01:24:36.956Z,80.32
2022-11-16T01:27:04.461Z,73.93
2022-11-16T01:29:35.406Z,74.07
2022-11-16T01:32:02.646Z,78.97
2022-11-16T01:34:30.223Z,83.78
2022-11-16T01:37:04.740Z,83.03
2022-11-16T01:39:35.929Z,82.60
2022-11-16T01:42:04.244Z,77.40
2022-11-16T01:44:32.247Z,79.15
2022-11-16T01:47:12.693Z,75.25
2022-11-16T01:49:45.056Z,72.78
2022-11-16T01:52:19.255Z,67.93
2022-11-16T01:55:06.315Z,63.13
2022-11-16T01:58:00.834Z,68.07
2022-11-16T02:00:34.346Z,67.57
2022-11-16T02:03:23.101Z,71.47
2022-11-16T02:06:26.430Z,66.68
2022-11-16T02:09:42.021Z,70.93
2022-11-16T02:12:10.059Z,67.57
2022-11-16T02:15:14.221Z,71.05
2022-11-16T02:17:58.923Z,60.60
2022-11-16T02:20:50.434Z,54.72
2022-11-16T02:23:40.104Z,58.60
2022-11-16T02:26:47.786Z,57.90
2022-11-16T02:29:27.983Z,58.20
2022-11-16T02:32:03.569Z,59.75
2022-11-16T02:35:14.606Z,63.75
2022-11-16T02:37:50.347Z,67.75
2022-11-16T02:40:22.688Z,70.15
2022-11-16T02:43:04.329Z,71.40
2022-11-16T02:45:39.736Z,72.30
2022-11-16T02:48:15.213Z,76.65
2022-11-16T02:50:44.111Z,79.53
2022-11-16T02:53:11.295Z,76.07
2022-11-16T02:55:40.085Z,78.25
2022-11-16T02:58:12.568Z,74.50
2022-11-16T03:01:08.239Z,70.57
2022-11-16T03:03:54.497Z,66.22
2022-11-16T03:09:08.793Z,69.50
2022-11-16T03:11:59.431Z,76.03
2022-11-16T03:14:52.086Z,87.15
2022-11-16T03:17:32.015Z,81.78
2022-11-16T03:20:20.786Z,74.40
2022-11-16T03:23:10.280Z,73.78
2022-11-16T03:25:51.927Z,69.97
2022-11-16T03:28:25.598Z,71.50
2022-11-16T03:31:06.069Z,71.05
2022-11-16T03:33:57.657Z,69.72
2022-11-16T03:36:30.105Z,68.95
2022-11-16T03:39:04.512Z,64.88
2022-11-16T03:41:37.668Z,60.58
2022-11-16T03:44:06.932Z,64.05
2022-11-16T03:46:34.874Z,59.15
2022-11-16T03:49:02.966Z,63.00
2022-11-16T03:51:36.073Z,57.42
2022-11-16T03:54:05.502Z,56.80
2022-11-16T03:56:34.160Z,53.83
2022-11-16T03:59:03.196Z,50.63
2022-11-16T04:01:31.817Z,51.90
2022-11-16T04:04:37.087Z,50.97
2022-11-16T04:07:25.454Z,51.30
2022-11-16T04:10:13.924Z,49.00
2022-11-16T04:13:03.339Z,55.15
2022-11-16T04:15:49.705Z,65.40
2022-11-16T04:18:35.845Z,55.70
2022-11-16T04:21:24.066Z,54.38
2022-11-16T04:24:10.987Z,57.33
2022-11-16T04:26:59.845Z,58.67
2022-11-16T04:29:27.626Z,64.65
2022-11-16T04:32:14.420Z,64.10
2022-11-16T04:35:00.411Z,66.43
2022-11-16T04:37:47.819Z,66.47
2022-11-16T04:40:19.642Z,66.60
2022-11-16T04:42:56.538Z,67.47
2022-11-16T04:45:43.452Z,67.43
2022-11-16T04:48:12.853Z,69.55
2022-11-16T04:50:41.980Z,69.63
2022-11-16T04:53:10.254Z,70.97
2022-11-16T04:55:44.869Z,70.03
2022-11-16T04:58:14.115Z,69.55
2022-11-16T05:00:41.655Z,74.20
2022-11-16T05:03:10.592Z,70.03
2022-11-16T05:05:39.202Z,70.55
2022-11-16T05:08:09.113Z,71.70
2022-11-16T05:10:36.868Z,69.47
2022-11-16T05:13:04.528Z,72.63
2022-11-16T05:15:33.236Z,71.70
2022-11-16T05:18:01.397Z,73.88
2022-11-16T05:20:48.267Z,75.35
2022-11-16T05:23:34.314Z,71.85
2022-11-16T05:26:08.779Z,70.85
2022-11-16T05:28:37.638Z,75.28
2022-11-16T05:31:05.071Z,72.13
2022-11-16T05:33:33.093Z,70.78
2022-11-16T05:36:01.359Z,86.75
2022-11-16T05:38:30.493Z,81.72
2022-11-16T05:41:00.422Z,82.60
2022-11-16T05:43:29.930Z,81.57
2022-11-16T05:46:13.725Z,79.07
2022-11-16T05:48:43.703Z,76.17
2022-11-16T05:51:14.235Z,76.95
2022-11-16T05:53:44.556Z,73.32
2022-11-16T05:56:17.552Z,75.15
2022-11-16T05:58:46.576Z,75.25
2022-11-16T06:01:14.166Z,75.78
2022-11-16T06:03:45.901Z,70.82
2022-11-16T06:06:14.436Z,71.63
2022-11-16T06:08:46.795Z,56.90
2022-11-16T06:11:20.079Z,29.25
2022-11-16T06:13:47.965Z,24.05
2022-11-16T06:16:16.078Z,20.80
2022-11-16T06:18:46.040Z,16.90
2022-11-16T06:21:17.839Z,16.63
2022-11-16T06:23:46.814Z,15.73
2022-11-16T06:26:15.312Z,15.45
2022-11-16T06:28:42.951Z,56.40
2022-11-16T06:31:13.331Z,17.10
2022-11-16T06:33:43.119Z,42.30
2022-11-16T06:36:21.582Z,18.20
2022-11-16T06:38:51.648Z,19.30
2022-11-16T06:41:21.630Z,31.95
2022-11-16T06:43:51.234Z,44.38
2022-11-16T06:46:21.727Z,58.42
2022-11-16T06:48:49.447Z,60.20
2022-11-16T06:51:18.094Z,71.57
2022-11-16T06:53:46.716Z,83.47
2022-11-16T06:56:16.243Z,99.35
2022-11-16T06:58:53.230Z,90.05
2022-11-16T07:01:21.314Z,87.65
2022-11-16T07:03:50.177Z,90.82
2022-11-16T07:06:17.468Z,84.53
2022-11-16T07:08:46.761Z,88.55
2022-11-16T07:11:18.067Z,85.72
2022-11-16T07:13:46.200Z,87.15
2022-11-16T07:16:13.857Z,63.13
2022-11-16T07:18:47.023Z,59.38
2022-11-16T07:21:17.739Z,69.88
2022-11-16T07:23:46.399Z,53.97
2022-11-16T07:26:18.778Z,47.53
2022-11-16T07:29:02.620Z,41.03
2022-11-16T07:31:31.029Z,70.13
2022-11-16T07:34:34.018Z,51.53
2022-11-16T07:37:06.718Z,39.70
2022-11-16T07:39:34.397Z,20.67
2022-11-16T07:42:03.719Z,15.57
2022-11-16T07:45:00.300Z,17.25
2022-11-16T07:47:29.417Z,22.85
2022-11-16T07:49:58.503Z,17.02
2022-11-16T07:52:28.235Z,40.58
2022-11-16T07:55:02.865Z,65.40
2022-11-16T07:57:31.001Z,67.78
2022-11-16T08:00:02.028Z,87.05
2022-11-16T08:02:40.841Z,94.25
2022-11-16T08:05:12.403Z,95.13
2022-11-16T08:07:40.451Z,93.72
2022-11-16T08:10:08.787Z,88.93
2022-11-16T08:12:36.196Z,91.35
2022-11-16T08:15:05.418Z,100.40
2022-11-16T08:17:33.531Z,91.68
2022-11-16T08:20:07.760Z,86.75
2022-11-16T08:22:36.803Z,91.45
2022-11-16T08:25:05.752Z,93.30
2022-11-16T08:27:33.539Z,112.82
2022-11-16T08:30:04.666Z,106.57
2022-11-16T08:32:32.739Z,109.00
2022-11-16T08:35:00.377Z,112.97
2022-11-16T08:37:28.303Z,87.63
2022-11-16T08:39:56.298Z,57.97
2022-11-16T08:42:25.080Z,24.40
2022-11-16T08:44:54.221Z,16.98
2022-11-16T08:47:21.627Z,17.42
2022-11-16T08:49:54.628Z,11.50
2022-11-16T08:52:24.432Z,9.18
2022-11-16T08:54:54.253Z,10.45
2022-11-16T08:57:23.777Z,8.88
2022-11-16T08:59:57.226Z,9.90
2022-11-16T09:02:27.557Z,8.75
2022-11-16T09:04:55.802Z,9.40
2022-11-16T09:07:25.532Z,7.72
2022-11-16T09:09:53.258Z,9.55
2022-11-16T09:12:20.648Z,10.27
2022-11-16T09:14:48.505Z,12.45
2022-11-16T09:17:22.925Z,20.00
2022-11-16T09:19:51.196Z,16.58
2022-11-16T09:22:18.633Z,16.05
2022-11-16T09:24:47.702Z,12.82
2022-11-16T09:27:15.197Z,12.20
2022-11-16T09:29:42.944Z,13.65
2022-11-16T09:32:11.704Z,12.48
2022-11-16T09:34:39.357Z,13.32
2022-11-16T09:37:08.203Z,12.60
2022-11-16T09:42:24.270Z,12.38
2022-11-16T09:45:01.589Z,11.10
2022-11-16T09:47:56.470Z,12.68
2022-11-16T09:53:29.727Z,12.95
2022-11-16T09:56:04.266Z,12.75
2022-11-16T09:58:40.454Z,12.80
2022-11-16T10:01:21.559Z,13.63
2022-11-16T10:03:53.956Z,12.27
2022-11-16T10:06:27.650Z,11.40
2022-11-16T10:08:58.656Z,11.40
2022-11-16T10:12:03.410Z,11.10
2022-11-16T10:15:04.924Z,14.38
2022-11-16T10:17:49.339Z,10.55
2022-11-16T10:20:31.054Z,11.70
2022-11-16T10:23:20.811Z,10.57
2022-11-16T10:25:54.456Z,11.82
2022-11-16T10:28:34.338Z,12.65
2022-11-16T10:31:04.561Z,10.70
2022-11-16T10:33:37.212Z,11.05
2022-11-16T10:36:12.008Z,8.35
2022-11-16T10:38:42.579Z,13.52
2022-11-16T10:41:26.218Z,9.90
2022-11-16T10:43:58.628Z,10.15
2022-11-16T10:46:27.381Z,9.45
2022-11-16T10:49:23.775Z,10.57
2022-11-16T10:51:51.187Z,8.40
2022-11-16T10:54:18.935Z,7.15
2022-11-16T10:56:56.044Z,8.05
2022-11-16T10:59:42.395Z,8.18
2022-11-16T11:02:25.578Z,10.27
2022-11-16T11:05:25.162Z,7.53
2022-11-16T11:08:01.937Z,4.95
2022-11-16T11:10:35.144Z,5.75
2022-11-16T11:13:25.388Z,9.23
2022-11-16T11:16:12.671Z,6.43
2022-11-16T11:18:40.188Z,8.07
2022-11-16T11:21:18.789Z,8.90
2022-11-16T11:23:53.420Z,5.38
2022-11-16T11:26:38.472Z,6.88
2022-11-16T11:29:32.010Z,7.15
2022-11-16T11:32:08.696Z,6.43
2022-11-16T11:34:43.181Z,6.78
2022-11-16T11:37:18.487Z,6.32
2022-11-16T11:42:41.456Z,6.00
2022-11-16T11:45:16.270Z,6.55
2022-11-16T11:48:03.080Z,7.32
2022-11-16T11:50:37.506Z,6.57
2022-11-16T11:53:16.455Z,7.03
2022-11-16T11:55:44.375Z,6.78
2022-11-16T11:58:18.626Z,6.65
2022-11-16T12:04:28.802Z,6.13
2022-11-16T12:07:02.329Z,6.78
2022-11-16T12:09:40.898Z,6.47
2022-11-16T12:12:34.737Z,25.88
2022-11-16T12:15:27.211Z,5.28
2022-11-16T12:18:25.984Z,4.50
2022-11-16T12:21:13.350Z,6.57
2022-11-16T12:24:19.517Z,7.88
2022-11-16T12:27:14.127Z,5.95
2022-11-16T12:30:00.719Z,4.75
2022-11-16T12:32:28.397Z,6.35
2022-11-16T12:35:17.951Z,6.20
2022-11-16T12:37:56.697Z,5.35
2022-11-16T12:40:43.021Z,5.55
2022-11-16T12:43:33.412Z,4.80
2022-11-16T12:46:04.675Z,4.55
2022-11-16T12:48:35.242Z,5.20
2022-11-16T12:51:12.099Z,11.27
2022-11-16T12:54:01.542Z,5.10
2022-11-16T12:56:38.567Z,9.18
2022-11-16T12:59:21.480Z,5.25
2022-11-16T13:02:12.106Z,5.68
2022-11-16T13:04:52.872Z,17.73
2022-11-16T13:07:33.202Z,15.27
2022-11-16T13:10:14.080Z,14.52
2022-11-16T13:12:45.664Z,6.90
2022-11-16T13:15:20.433Z,6.03
2022-11-16T13:17:57.239Z,16.55
2022-11-16T13:20:46.289Z,6.90
2022-11-16T13:23:32.937Z,6.95
2022-11-16T13:26:10.626Z,11.88
2022-11-16T13:29:20.854Z,9.10
2022-11-16T13:32:19.642Z,14.50
2022-11-16T13:34:48.295Z,12.35
2022-11-16T13:37:34.641Z,15.95
2022-11-16T13:40:01.948Z,25.35
2022-11-16T13:42:57.920Z,14.82
2022-11-16T13:45:29.723Z,13.02
2022-11-16T13:47:59.036Z,8.50
2022-11-16T13:50:56.586Z,11.40
2022-11-16T13:56:29.240Z,18.52
2022-11-16T13:58:58.502Z,22.20
2022-11-16T14:01:46.077Z,23.17
2022-11-16T14:05:02.100Z,26.90
2022-11-16T14:07:35.671Z,27.20
2022-11-16T14:10:05.894Z,29.52
2022-11-16T14:12:54.542Z,47.85
2022-11-16T14:15:34.034Z,45.33
2022-11-16T14:18:22.879Z,41.65
2022-11-16T14:20:57.233Z,39.08
2022-11-16T14:23:32.245Z,50.28
2022-11-16T14:26:13.989Z,50.40
2022-11-16T14:29:07.230Z,44.47
2022-11-16T14:31:48.880Z,36.13
2022-11-16T14:34:24.779Z,40.70
2022-11-16T14:36:53.464Z,43.75
2022-11-16T14:39:31.918Z,33.55
2022-11-16T14:42:08.494Z,32.42
2022-11-16T14:44:39.390Z,30.52
2022-11-16T14:47:20.982Z,31.27
2022-11-16T14:49:48.833Z,35.72
2022-11-16T14:52:24.362Z,34.72
2022-11-16T14:54:57.179Z,36.10
2022-11-16T14:57:24.897Z,36.22
2022-11-16T15:00:12.881Z,33.97
2022-11-16T15:02:41.528Z,36.13
2022-11-16T15:05:19.835Z,37.00
2022-11-16T15:07:51.345Z,35.83
2022-11-16T15:10:26.279Z,32.05
2022-11-16T15:12:55.488Z,30.83
2022-11-16T15:15:26.760Z,30.20
2022-11-16T15:18:00.493Z,29.85
2022-11-16T15:20:35.197Z,26.55
2022-11-16T15:23:05.737Z,31.30
2022-11-16T15:25:57.376Z,26.23
2022-11-16T15:28:27.894Z,36.60
2022-11-16T15:30:59.028Z,29.33
2022-11-16T15:33:31.007Z,24.15
2022-11-16T15:35:58.755Z,28.27
2022-11-16T15:38:33.790Z,24.63
2022-11-16T15:41:03.864Z,25.27
2022-11-16T15:43:38.239Z,21.65
2022-11-16T15:46:14.166Z,22.15
2022-11-16T15:48:42.987Z,20.45
2022-11-16T15:51:23.230Z,23.83
2022-11-16T15:53:55.376Z,19.52
2022-11-16T15:56:25.495Z,19.42
2022-11-16T15:58:54.681Z,18.33
2022-11-16T16:01:23.234Z,22.25
2022-11-16T16:03:59.192Z,23.67
2022-11-16T16:06:57.057Z,24.40
2022-11-16T16:09:34.454Z,24.42
2022-11-16T16:12:18.898Z,21.65
2022-11-16T16:14:51.237Z,21.35
2022-11-16T16:17:32.078Z,19.80
2022-11-16T16:20:06.586Z,25.60
2022-11-16T16:22:37.522Z,22.38
2022-11-16T16:25:07.216Z,18.63
2022-11-16T16:27:40.095Z,16.60
2022-11-16T16:30:08.789Z,16.70
2022-11-16T16:32:37.945Z,16.13
2022-11-16T16:35:07.921Z,17.55
2022-11-16T16:37:38.682Z,24.45
2022-11-16T16:40:07.502Z,20.77
2022-11-16T16:42:37.248Z,19.98
2022-11-16T16:45:05.475Z,20.30
2022-11-16T16:47:33.282Z,19.50
2022-11-16T16:50:00.968Z,20.30
2022-11-16T16:52:28.267Z,22.27
2022-11-16T16:54:55.982Z,20.20
2022-11-16T16:57:23.247Z,20.58
2022-11-16T16:59:50.846Z,22.98
2022-11-16T17:02:19.872Z,25.02
2022-11-16T17:04:48.591Z,27.00
2022-11-16T17:07:17.252Z,29.33
2022-11-16T17:09:45.027Z,33.45
2022-11-16T17:12:12.359Z,46.53
2022-11-16T17:14:39.952Z,29.30
2022-11-16T17:17:07.275Z,29.83
2022-11-16T17:19:34.914Z,27.65
2022-11-16T17:22:02.199Z,26.15
2022-11-16T17:24:30.129Z,26.70
2022-11-16T17:26:57.501Z,24.90
2022-11-16T17:29:29.330Z,25.58
2022-11-16T17:31:56.611Z,30.20
2022-11-16T17:34:24.351Z,31.42
2022-11-16T17:36:51.829Z,29.27
2022-11-16T17:39:23.357Z,34.17
2022-11-16T17:41:51.156Z,37.30
2022-11-16T17:44:22.082Z,32.35
2022-11-16T17:46:50.314Z,38.67
2022-11-16T17:49:18.197Z,34.90
2022-11-16T17:51:45.522Z,29.88
2022-11-16T17:54:13.140Z,36.85
2022-11-16T17:56:41.334Z,41.88
2022-11-16T17:59:11.062Z,47.67
2022-11-16T18:01:40.147Z,34.00
2022-11-16T18:04:07.898Z,65.28
2022-11-16T18:06:35.742Z,50.38
2022-11-16T18:09:05.109Z,27.63
2022-11-16T18:11:33.103Z,24.90
2022-11-16T18:14:02.103Z,25.20
2022-11-16T18:16:32.698Z,28.10
2022-11-16T18:19:02.645Z,27.13
2022-11-16T18:21:30.526Z,25.20
2022-11-16T18:24:00.663Z,25.23
2022-11-16T18:26:28.114Z,24.45
2022-11-16T18:28:57.110Z,25.83
2022-11-16T18:31:25.304Z,23.67
2022-11-16T18:33:54.106Z,27.00
2022-11-16T18:36:22.987Z,25.10
2022-11-16T18:38:51.032Z,27.90
2022-11-16T18:41:23.073Z,26.63
2022-11-16T18:43:53.965Z,27.67
2022-11-16T18:46:32.276Z,24.35
2022-11-16T18:49:00.476Z,21.45
2022-11-16T18:51:28.998Z,20.75
2022-11-16T18:53:58.299Z,21.17
2022-11-16T18:56:25.629Z,20.25
2022-11-16T18:58:54.515Z,19.60
2022-11-16T19:01:25.155Z,22.08
2022-11-16T19:03:56.178Z,19.63
2022-11-16T19:06:24.340Z,19.75
2022-11-16T19:08:59.352Z,21.55
2022-11-16T19:11:28.661Z,23.55
2022-11-16T19:14:00.708Z,21.00
2022-11-16T19:16:28.450Z,22.88
2022-11-16T19:18:57.659Z,22.38
2022-11-16T19:21:47.835Z,22.52
2022-11-16T19:24:32.784Z,20.92
2022-11-16T19:27:00.955Z,23.98
2022-11-16T19:29:29.811Z,21.15
2022-11-16T19:32:02.095Z,22.83
2022-11-16T19:34:33.425Z,23.63
2022-11-16T19:37:02.504Z,20.58
2022-11-16T19:39:34.428Z,20.73
2022-11-16T19:42:04.339Z,19.25
2022-11-16T19:44:35.366Z,13.98
2022-11-16T19:47:07.369Z,17.50
2022-11-16T19:49:36.318Z,17.67
2022-11-16T19:52:04.068Z,17.17
2022-11-16T19:54:31.748Z,15.63
2022-11-16T19:57:08.611Z,17.90
2022-11-16T19:59:38.352Z,15.48
2022-11-16T20:02:10.268Z,17.33
2022-11-16T20:04:45.561Z,15.75
2022-11-16T20:07:18.568Z,15.63
2022-11-16T20:09:57.626Z,16.25
2022-11-16T20:12:35.893Z,13.88
2022-11-16T20:15:11.593Z,14.82
2022-11-16T20:17:44.563Z,15.93
2022-11-16T20:20:17.636Z,18.42
2022-11-16T20:22:55.173Z,18.08
2022-11-16T20:26:08.344Z,17.45
2022-11-16T20:28:39.525Z,17.48
2022-11-16T20:31:17.864Z,13.82
2022-11-16T20:34:03.388Z,17.35
2022-11-16T20:36:35.462Z,16.48
2022-11-16T20:39:03.354Z,14.55
2022-11-16T20:41:33.922Z,13.70
2022-11-16T20:44:03.442Z,14.13
2022-11-16T20:46:33.967Z,14.23
2022-11-16T20:49:05.113Z,14.88
2022-11-16T20:51:33.847Z,12.93
2022-11-16T20:57:16.907Z,11.10
2022-11-16T20:59:44.756Z,14.52
2022-11-16T21:02:15.187Z,17.92
2022-11-16T21:04:44.992Z,20.80
2022-11-16T21:07:16.905Z,20.25
2022-11-16T21:10:04.406Z,18.00
2022-11-16T21:12:50.921Z,14.00
2022-11-16T21:15:19.494Z,12.63
2022-11-16T21:17:47.799Z,11.65
2022-11-16T21:20:27.369Z,13.25
2022-11-16T21:22:57.220Z,13.35
2022-11-16T21:25:29.125Z,12.35
2022-11-16T21:27:59.564Z,13.43
2022-11-16T21:30:32.544Z,13.57
2022-11-16T21:33:00.097Z,13.80
2022-11-16T21:35:29.061Z,14.05
2022-11-16T21:37:59.924Z,15.13
2022-11-16T21:40:27.779Z,14.15
2022-11-16T21:42:57.314Z,14.30
2022-11-16T21:45:25.288Z,14.00
2022-11-16T21:47:53.973Z,15.13
2022-11-16T21:50:36.798Z,15.48
2022-11-16T21:53:07.913Z,15.77
2022-11-16T21:55:39.071Z,21.10
2022-11-16T21:58:08.706Z,28.63
2022-11-16T22:00:36.674Z,27.33
2022-11-16T22:03:04.752Z,34.90
2022-11-16T22:05:51.823Z,44.30
2022-11-16T22:08:19.072Z,19.08
2022-11-16T22:10:54.351Z,23.52
2022-11-16T22:13:23.150Z,26.98
2022-11-16T22:15:51.198Z,21.60
2022-11-16T22:18:18.607Z,20.20
2022-11-16T22:20:50.029Z,21.60
2022-11-16T22:23:22.694Z,25.20
2022-11-16T22:26:11.321Z,20.03
2022-11-16T22:28:39.996Z,20.95
2022-11-16T22:31:12.229Z,20.52
2022-11-16T22:33:41.075Z,23.67
2022-11-16T22:36:11.314Z,25.10
2022-11-16T22:38:38.740Z,25.50
2022-11-16T22:41:08.547Z,46.65
2022-11-16T22:43:37.729Z,44.67
2022-11-16T22:46:07.005Z,31.77
2022-11-16T22:48:36.751Z,34.58
2022-11-16T22:51:07.340Z,35.70
2022-11-16T22:53:39.928Z,32.78
2022-11-16T22:56:09.690Z,33.75
2022-11-16T22:58:39.393Z,26.08
2022-11-16T23:01:08.283Z,31.58
2022-11-16T23:03:37.552Z,33.83
2022-11-16T23:06:07.355Z,31.40
2022-11-16T23:08:35.754Z,34.17
2022-11-16T23:11:31.731Z,31.00
2022-11-16T23:14:17.843Z,58.75
2022-11-16T23:16:50.479Z,46.65
2022-11-16T23:19:38.119Z,37.90
2022-11-16T23:22:26.927Z,28.63
2022-11-16T23:25:14.974Z,24.45
2022-11-16T23:27:56.931Z,25.73
2022-11-16T23:30:25.024Z,25.92
2022-11-16T23:32:53.819Z,27.38
2022-11-16T23:35:21.706Z,28.70
2022-11-16T23:37:57.189Z,34.30
2022-11-16T23:40:27.772Z,31.80
2022-11-16T23:43:16.395Z,34.17
2022-11-16T23:45:44.621Z,36.13
2022-11-16T23:48:14.545Z,36.65
2022-11-16T23:50:45.807Z,36.33
2022-11-16T23:53:18.009Z,32.97
2022-11-16T23:55:49.145Z,36.25
2022-11-16T23:58:16.966Z,37.72
